createdAt,value
2018-03-16T00:05:30.439Z,100214.06
2018-03-16T00:08:33.633Z,100214.05
2018-03-16T00:11:36.809Z,100216.86
2018-03-16T00:14:40.261Z,100221.53
2018-03-16T00:17:43.425Z,100223.09
2018-03-16T00:20:46.593Z,100227.04
2018-03-16T00:23:49.795Z,100229.86
2018-03-16T00:26:52.990Z,100236.72
2018-03-16T00:29:56.187Z,100236.34
2018-03-16T00:32:59.381Z,100243.15
2018-03-16T00:36:02.569Z,100244.05
2018-03-16T00:39:05.765Z,100247.47
2018-03-16T00:42:08.971Z,100250.03
2018-03-16T00:45:12.162Z,100251.88
2018-03-16T00:48:15.363Z,100248.91
2018-03-16T00:51:18.537Z,100259.00
2018-03-16T00:54:21.733Z,100256.40
2018-03-16T00:57:24.946Z,100253.87
2018-03-16T01:00:28.142Z,100257.16
2018-03-16T01:03:31.453Z,100262.64
2018-03-16T01:06:34.623Z,100261.63
2018-03-16T01:09:37.845Z,100263.73
2018-03-16T01:12:41.035Z,100262.08
2018-03-16T01:15:44.245Z,100259.27
2018-03-16T01:18:47.420Z,100261.83
2018-03-16T01:21:50.562Z,100261.36
2018-03-16T01:24:53.718Z,100267.52
2018-03-16T01:27:57.030Z,100264.60
2018-03-16T01:31:00.195Z,100265.69
2018-03-16T01:34:03.358Z,100270.18
2018-03-16T01:37:06.609Z,100269.61
2018-03-16T01:40:10.156Z,100267.27
2018-03-16T01:43:13.397Z,100265.63
2018-03-16T01:46:16.590Z,100270.82
2018-03-16T01:49:19.787Z,100273.36
2018-03-16T01:52:22.935Z,100274.18
2018-03-16T01:55:26.218Z,100274.02
2018-03-16T01:58:29.390Z,100276.48
2018-03-16T02:01:32.755Z,100277.24
2018-03-16T02:04:35.973Z,100274.67
2018-03-16T02:07:39.175Z,100275.12
2018-03-16T02:10:42.351Z,100272.71
2018-03-16T02:13:45.549Z,100274.56
2018-03-16T02:16:48.751Z,100271.46
2018-03-16T02:19:51.967Z,100274.06
2018-03-16T02:22:55.123Z,100267.99
2018-03-16T02:25:58.326Z,100271.35
2018-03-16T02:29:01.513Z,100271.38
2018-03-16T02:32:04.634Z,100267.74
2018-03-16T02:35:07.808Z,100268.18
2018-03-16T02:38:11.002Z,100264.32
2018-03-16T02:41:14.163Z,100270.40
2018-03-16T02:44:17.283Z,100270.86
2018-03-16T02:47:20.511Z,100271.48
2018-03-16T02:50:23.687Z,100265.09
2018-03-16T02:53:27.011Z,100264.57
2018-03-16T02:56:30.282Z,100267.88
2018-03-16T02:59:33.455Z,100268.37
2018-03-16T03:02:36.598Z,100268.59
2018-03-16T03:05:39.739Z,100265.12
2018-03-16T03:08:42.940Z,100265.14
2018-03-16T03:11:46.077Z,100264.40
2018-03-16T03:14:49.234Z,100266.22
2018-03-16T03:17:52.438Z,100265.48
2018-03-16T03:20:55.627Z,100265.19
2018-03-16T03:23:58.821Z,100259.82
2018-03-16T03:27:02.054Z,100262.38
2018-03-16T03:30:05.328Z,100269.31
2018-03-16T03:33:08.510Z,100268.80
2018-03-16T03:36:11.711Z,100267.89
2018-03-16T03:39:14.910Z,100269.54
2018-03-16T03:42:18.126Z,100270.04
2018-03-16T03:45:21.290Z,100269.03
2018-03-16T03:48:24.492Z,100270.32
2018-03-16T03:51:27.701Z,100270.97
2018-03-16T03:54:30.926Z,100271.78
2018-03-16T03:57:34.119Z,100278.07
2018-03-16T04:00:37.430Z,100277.31
2018-03-16T04:03:40.560Z,100278.67
2018-03-16T04:06:43.701Z,100278.03
2018-03-16T04:09:46.871Z,100281.88
2018-03-16T04:12:50.105Z,100282.71
2018-03-16T04:15:53.266Z,100286.98
2018-03-16T04:18:56.512Z,100288.53
2018-03-16T04:21:59.647Z,100287.81
2018-03-16T04:25:02.835Z,100281.05
2018-03-16T04:28:06.033Z,100279.84
2018-03-16T04:31:09.531Z,100283.55
2018-03-16T04:34:12.736Z,100286.00
2018-03-16T04:37:15.932Z,100274.74
2018-03-16T04:40:19.127Z,100278.16
2018-03-16T04:43:22.317Z,100285.04
2018-03-16T04:46:25.487Z,100287.16
2018-03-16T04:49:28.674Z,100288.50
2018-03-16T04:52:31.926Z,100291.95
2018-03-16T04:55:35.087Z,100286.27
2018-03-16T04:58:38.322Z,100293.24
2018-03-16T05:01:41.586Z,100296.45
2018-03-16T05:04:44.798Z,100305.04
2018-03-16T05:07:48.021Z,100304.44
2018-03-16T05:10:51.282Z,100304.53
2018-03-16T05:13:54.859Z,100305.16
2018-03-16T05:16:58.266Z,100308.84
2018-03-16T05:20:01.520Z,100308.31
2018-03-16T05:23:05.353Z,100311.19
2018-03-16T05:26:10.103Z,100306.87
2018-03-16T05:29:13.331Z,100315.38
2018-03-16T05:32:16.510Z,100315.73
2018-03-16T05:35:19.720Z,100325.65
2018-03-16T05:38:22.892Z,100327.02
2018-03-16T05:41:26.085Z,100334.58
2018-03-16T05:44:29.311Z,100335.18
2018-03-16T05:47:32.519Z,100340.13
2018-03-16T05:50:35.766Z,100332.17
2018-03-16T05:53:38.958Z,100334.75
2018-03-16T05:56:42.139Z,100333.83
2018-03-16T05:59:45.357Z,100328.74
2018-03-16T06:02:48.578Z,100328.64
2018-03-16T06:05:52.229Z,100323.43
2018-03-16T06:08:55.474Z,100322.42
2018-03-16T06:11:58.670Z,100323.72
2018-03-16T06:15:01.857Z,100335.48
2018-03-16T06:18:06.598Z,100337.37
2018-03-16T06:21:09.763Z,100341.75
2018-03-16T06:24:13.003Z,100345.21
2018-03-16T06:27:16.721Z,100344.49
2018-03-16T06:30:19.978Z,100348.89
2018-03-16T06:33:23.898Z,100351.78
2018-03-16T06:36:27.068Z,100352.01
2018-03-16T06:39:30.225Z,100357.04
2018-03-16T06:42:33.462Z,100360.55
2018-03-16T06:45:36.657Z,100364.83
2018-03-16T06:48:39.906Z,100362.37
2018-03-16T06:51:43.058Z,100364.22
2018-03-16T06:54:46.270Z,100368.02
2018-03-16T06:57:49.467Z,100368.82
2018-03-16T07:00:52.644Z,100367.42
2018-03-16T07:03:55.862Z,100371.16
2018-03-16T07:06:59.024Z,100376.04
2018-03-16T07:10:02.617Z,100382.65
2018-03-16T07:13:05.741Z,100386.53
2018-03-16T07:16:09.383Z,100389.51
2018-03-16T07:19:12.633Z,100399.01
2018-03-16T07:22:15.773Z,100401.95
2018-03-16T07:25:18.927Z,100406.33
2018-03-16T07:28:22.084Z,100413.21
2018-03-16T07:31:25.271Z,100416.80
2018-03-16T07:34:28.529Z,100423.76
2018-03-16T07:37:31.690Z,100429.52
2018-03-16T07:40:34.923Z,100425.00
2018-03-16T07:43:38.094Z,100428.91
2018-03-16T07:46:41.982Z,100432.55
2018-03-16T07:49:45.132Z,100437.76
2018-03-16T07:52:48.298Z,100437.00
2018-03-16T07:55:51.518Z,100441.15
2018-03-16T07:58:54.684Z,100447.05
2018-03-16T08:01:57.871Z,100448.20
2018-03-16T08:05:01.069Z,100451.23
2018-03-16T08:08:04.265Z,100452.90
2018-03-16T08:11:07.475Z,100453.11
2018-03-16T08:14:10.658Z,100460.26
2018-03-16T08:17:13.853Z,100461.62
2018-03-16T08:20:17.018Z,100466.27
2018-03-16T08:23:20.270Z,100468.11
2018-03-16T08:26:23.465Z,100470.66
2018-03-16T08:29:26.716Z,100467.80
2018-03-16T08:32:29.827Z,100471.38
2018-03-16T08:35:33.039Z,100472.34
2018-03-16T08:38:36.596Z,100470.10
2018-03-16T08:41:39.730Z,100472.79
2018-03-16T08:44:42.905Z,100470.11
2018-03-16T08:47:46.110Z,100471.77
2018-03-16T08:50:49.302Z,100471.34
2018-03-16T08:53:52.430Z,100472.63
2018-03-16T08:56:55.690Z,100473.75
2018-03-16T08:59:58.898Z,100480.17
2018-03-16T09:03:02.083Z,100481.23
2018-03-16T09:06:05.276Z,100484.06
2018-03-16T09:09:08.471Z,100480.84
2018-03-16T09:12:11.679Z,100480.05
2018-03-16T09:15:14.871Z,100480.68
2018-03-16T09:18:18.039Z,100479.29
2018-03-16T09:21:21.252Z,100488.73
2018-03-16T09:24:24.525Z,100489.62
2018-03-16T09:27:27.742Z,100486.70
2018-03-16T09:30:30.926Z,100488.02
2018-03-16T09:33:34.139Z,100494.35
2018-03-16T09:36:37.350Z,100497.80
2018-03-16T09:39:40.460Z,100498.23
2018-03-16T09:42:43.639Z,100502.64
2018-03-16T09:45:46.810Z,100506.04
2018-03-16T09:48:50.017Z,100510.47
2018-03-16T09:51:53.206Z,100511.25
2018-03-16T09:55:36.488Z,100506.73
2018-03-16T09:58:39.638Z,100512.39
2018-03-16T10:01:42.784Z,100513.04
2018-03-16T10:04:45.920Z,100509.20
2018-03-16T10:07:49.105Z,100512.16
2018-03-16T10:10:52.309Z,100508.27
2018-03-16T10:13:55.499Z,100508.56
2018-03-16T10:16:58.806Z,100506.68
2018-03-16T10:20:02.008Z,100505.70
2018-03-16T10:24:24.645Z,100508.59
2018-03-16T10:27:27.919Z,100510.71
2018-03-16T10:30:31.060Z,100506.16
2018-03-16T10:33:34.241Z,100508.29
2018-03-16T10:36:37.430Z,100509.33
2018-03-16T10:39:41.058Z,100506.23
2018-03-16T10:42:44.260Z,100508.36
2018-03-16T10:45:47.426Z,100509.00
2018-03-16T10:48:50.689Z,100506.05
2018-03-16T10:51:53.793Z,100499.86
2018-03-16T10:54:57.072Z,100503.71
2018-03-16T10:58:00.259Z,100504.08
2018-03-16T11:01:07.599Z,100503.16
2018-03-16T11:04:14.146Z,100503.06
2018-03-16T11:07:18.157Z,100501.22
2018-03-16T11:10:21.382Z,100503.56
2018-03-16T11:13:24.594Z,100504.72
2018-03-16T11:16:27.735Z,100505.90
2018-03-16T11:19:30.870Z,100508.53
2018-03-16T11:22:34.010Z,100505.93
2018-03-16T11:25:37.263Z,100504.15
2018-03-16T11:28:40.446Z,100496.58
2018-03-16T11:31:43.651Z,100504.97
2018-03-16T11:34:46.941Z,100502.82
2018-03-16T11:37:50.086Z,100505.07
2018-03-16T11:40:53.250Z,100500.31
2018-03-16T11:43:56.558Z,100494.65
2018-03-16T11:46:59.720Z,100502.73
2018-03-16T11:50:02.848Z,100492.29
2018-03-16T11:53:06.019Z,100497.85
2018-03-16T11:56:09.206Z,100495.91
2018-03-16T11:59:12.444Z,100493.77
2018-03-16T12:02:15.589Z,100496.31
2018-03-16T12:05:19.034Z,100495.81
2018-03-16T12:08:22.206Z,100498.67
2018-03-16T12:11:25.389Z,100498.29
2018-03-16T12:14:28.580Z,100492.15
2018-03-16T12:17:31.775Z,100492.62
2018-03-16T12:20:34.980Z,100491.76
2018-03-16T12:23:38.185Z,100492.20
2018-03-16T12:26:41.356Z,100489.26
2018-03-16T12:29:44.551Z,100487.35
2018-03-16T12:32:47.871Z,100482.62
2018-03-16T12:35:51.419Z,100480.99
2018-03-16T12:38:54.568Z,100475.95
2018-03-16T12:41:57.791Z,100471.36
2018-03-16T12:45:00.955Z,100467.80
2018-03-16T12:48:04.120Z,100465.64
2018-03-16T12:51:07.354Z,100464.49
2018-03-16T12:54:10.585Z,100457.27
2018-03-16T12:57:13.751Z,100455.96
2018-03-16T13:00:16.928Z,100457.73
2018-03-16T13:03:20.139Z,100456.16
2018-03-16T13:06:23.272Z,100451.02
2018-03-16T13:09:26.437Z,100447.69
2018-03-16T13:12:29.663Z,100449.20
2018-03-16T13:15:32.800Z,100443.59
2018-03-16T13:18:35.990Z,100445.77
2018-03-16T13:21:39.118Z,100447.24
2018-03-16T13:24:42.394Z,100446.69
2018-03-16T13:27:45.574Z,100441.55
2018-03-16T13:30:48.871Z,100444.08
2018-03-16T13:33:52.059Z,100432.50
2018-03-16T13:36:55.198Z,100438.49
2018-03-16T13:39:58.378Z,100438.03
2018-03-16T13:43:01.716Z,100437.38
2018-03-16T13:46:08.720Z,100426.98
2018-03-16T13:49:12.077Z,100423.00
2018-03-16T13:52:15.231Z,100428.86
2018-03-16T13:55:18.421Z,100419.46
2018-03-16T13:58:21.635Z,100422.15
2018-03-16T14:01:25.110Z,100421.26
2018-03-16T14:04:28.336Z,100427.60
2018-03-16T14:07:31.533Z,100439.24
2018-03-16T14:10:34.715Z,100440.06
2018-03-16T14:13:37.895Z,100443.18
2018-03-16T14:16:41.082Z,100445.00
2018-03-16T14:19:44.295Z,100453.75
2018-03-16T14:22:47.490Z,100445.92
2018-03-16T14:25:51.296Z,100446.09
2018-03-16T14:28:54.482Z,100445.69
2018-03-16T14:31:57.626Z,100453.63
2018-03-16T14:35:00.785Z,100455.88
2018-03-16T14:38:03.975Z,100458.16
2018-03-16T14:41:07.131Z,100451.80
2018-03-16T14:44:10.375Z,100449.00
2018-03-16T14:47:13.510Z,100448.54
2018-03-16T14:50:16.743Z,100447.85
2018-03-16T14:53:19.942Z,100442.38
2018-03-16T14:56:23.126Z,100444.09
2018-03-16T14:59:26.351Z,100446.41
2018-03-16T15:02:29.627Z,100440.82
2018-03-16T15:05:32.786Z,100440.61
2018-03-16T15:08:36.482Z,100441.88
2018-03-16T15:11:39.648Z,100441.50
2018-03-16T15:14:42.807Z,100439.05
2018-03-16T15:17:46.000Z,100441.53
2018-03-16T15:20:49.204Z,100438.06
2018-03-16T15:23:52.363Z,100439.84
2018-03-16T15:26:55.503Z,100435.13
2018-03-16T15:29:58.668Z,100429.45
2018-03-16T15:33:01.959Z,100426.50
2018-03-16T15:36:05.178Z,100420.72
2018-03-16T15:39:08.546Z,100422.93
2018-03-16T15:42:11.786Z,100422.65
2018-03-16T15:45:15.979Z,100421.15
2018-03-16T15:48:19.131Z,100422.49
2018-03-16T15:51:22.282Z,100414.35
2018-03-16T15:54:25.507Z,100407.18
2018-03-16T15:57:28.666Z,100405.41
2018-03-16T16:00:31.922Z,100402.31
2018-03-16T16:03:35.137Z,100401.97
2018-03-16T16:06:38.520Z,100401.72
2018-03-16T16:09:41.693Z,100404.18
2018-03-16T16:12:44.901Z,100395.80
2018-03-16T16:15:48.066Z,100395.70
2018-03-16T16:18:51.213Z,100394.11
2018-03-16T16:21:54.365Z,100395.94
2018-03-16T16:24:57.539Z,100394.66
2018-03-16T16:28:00.738Z,100398.37
2018-03-16T16:31:04.038Z,100398.21
2018-03-16T16:34:07.258Z,100394.26
2018-03-16T16:37:10.581Z,100391.16
2018-03-16T16:40:13.775Z,100395.35
2018-03-16T16:43:16.998Z,100397.73
2018-03-16T16:46:20.256Z,100399.41
2018-03-16T16:49:23.494Z,100402.16
2018-03-16T16:52:26.718Z,100402.63
2018-03-16T16:55:30.008Z,100406.43
2018-03-16T16:58:33.453Z,100411.25
2018-03-16T17:01:36.689Z,100404.07
2018-03-16T17:04:39.912Z,100406.41
2018-03-16T17:07:43.198Z,100409.29
2018-03-16T17:10:46.480Z,100415.55
2018-03-16T17:13:49.813Z,100422.43
2018-03-16T17:16:53.029Z,100434.69
2018-03-16T17:19:56.263Z,100438.61
2018-03-16T17:22:59.653Z,100445.69
2018-03-16T17:26:02.966Z,100440.41
2018-03-16T17:29:06.264Z,100443.18
2018-03-16T17:32:10.812Z,100445.31
2018-03-16T17:35:14.101Z,100458.70
2018-03-16T17:38:17.795Z,100462.02
2018-03-16T17:41:21.357Z,100464.81
2018-03-16T17:44:24.715Z,100467.99
2018-03-16T17:47:28.179Z,100468.15
2018-03-16T17:50:31.947Z,100468.74
2018-03-16T17:53:35.126Z,100473.78
2018-03-16T17:56:38.425Z,100479.56
2018-03-16T17:59:42.041Z,100479.97
2018-03-16T18:02:45.468Z,100472.64
2018-03-16T18:05:48.801Z,100474.20
2018-03-16T18:08:52.369Z,100475.53
2018-03-16T18:11:55.600Z,100484.58
2018-03-16T18:14:58.895Z,100480.79
2018-03-16T18:18:02.233Z,100489.99
2018-03-16T18:21:05.427Z,100488.58
2018-03-16T18:24:08.618Z,100493.44
2018-03-16T18:27:11.795Z,100498.91
2018-03-16T18:30:15.074Z,100497.79
2018-03-16T18:33:18.373Z,100502.26
2018-03-16T18:36:21.687Z,100502.77
2018-03-16T18:39:24.965Z,100503.49
2018-03-16T18:42:28.260Z,100508.69
2018-03-16T18:45:31.558Z,100511.08
2018-03-16T18:48:34.871Z,100513.80
2018-03-16T18:51:38.089Z,100507.99
2018-03-16T18:54:41.253Z,100512.14
2018-03-16T18:57:44.493Z,100510.13
2018-03-16T19:00:47.643Z,100506.64
2018-03-16T19:03:50.830Z,100513.14
2018-03-16T19:06:54.030Z,100511.64
2018-03-16T19:09:57.202Z,100515.32
2018-03-16T19:13:00.436Z,100507.56
2018-03-16T19:16:03.678Z,100513.03
2018-03-16T19:19:06.825Z,100517.44
2018-03-16T19:22:10.176Z,100516.15
2018-03-16T19:25:13.431Z,100511.50
2018-03-16T19:28:16.706Z,100507.07
2018-03-16T19:31:19.986Z,100514.31
2018-03-16T19:34:23.204Z,100508.23
2018-03-16T19:37:26.383Z,100507.68
2018-03-16T19:40:29.582Z,100507.06
2018-03-16T19:43:32.778Z,100516.76
2018-03-16T19:46:35.965Z,100516.87
2018-03-16T19:49:39.248Z,100522.65
2018-03-16T19:52:42.463Z,100525.26
2018-03-16T19:55:45.655Z,100529.75
2018-03-16T19:58:48.997Z,100526.79
2018-03-16T20:01:55.059Z,100527.35
2018-03-16T20:04:58.214Z,100520.23
2018-03-16T20:08:01.415Z,100522.60
2018-03-16T20:11:04.558Z,100521.64
2018-03-16T20:14:07.720Z,100518.96
2018-03-16T20:17:10.950Z,100531.97
2018-03-16T20:20:14.118Z,100537.44
2018-03-16T20:23:17.496Z,100536.99
2018-03-16T20:26:20.686Z,100534.50
2018-03-16T20:29:23.897Z,100537.19
2018-03-16T20:32:27.070Z,100537.20
2018-03-16T20:35:30.271Z,100536.62
2018-03-16T20:38:33.463Z,100531.38
2018-03-16T20:41:36.751Z,100535.95
2018-03-16T20:44:39.980Z,100542.10
2018-03-16T20:47:43.254Z,100538.46
2018-03-16T20:50:46.561Z,100546.30
2018-03-16T20:53:49.885Z,100547.88
2018-03-16T20:56:53.208Z,100550.26
2018-03-16T20:59:56.437Z,100552.79
2018-03-16T21:02:59.754Z,100551.56
2018-03-16T21:06:03.481Z,100548.82
2018-03-16T21:09:06.764Z,100549.20
2018-03-16T21:12:10.055Z,100545.32
2018-03-16T21:15:13.346Z,100549.72
2018-03-16T21:18:16.639Z,100550.25
2018-03-16T21:21:19.956Z,100550.87
2018-03-16T21:24:23.202Z,100542.77
2018-03-16T21:27:26.379Z,100538.45
2018-03-16T21:30:29.794Z,100532.97
2018-03-16T21:33:33.132Z,100534.39
2018-03-16T21:36:36.451Z,100531.42
2018-03-16T21:39:39.719Z,100520.12
2018-03-16T21:42:43.059Z,100518.10
2018-03-16T21:45:46.302Z,100515.97
2018-03-16T21:48:49.636Z,100514.40
2018-03-16T21:51:52.927Z,100508.91
2018-03-16T21:54:56.205Z,100506.15
2018-03-16T21:57:59.426Z,100508.40
2018-03-16T22:01:02.695Z,100514.59
2018-03-16T22:04:06.005Z,100504.49
2018-03-16T22:07:09.288Z,100502.03
2018-03-16T22:10:12.583Z,100499.53
2018-03-16T22:13:15.899Z,100494.02
2018-03-16T22:16:19.188Z,100493.91
2018-03-16T22:19:22.419Z,100499.52
2018-03-16T22:22:25.678Z,100500.82
2018-03-16T22:25:28.895Z,100502.62
2018-03-16T22:28:32.094Z,100502.25
2018-03-16T22:31:35.346Z,100505.31
2018-03-16T22:34:40.153Z,100507.77
2018-03-16T22:37:43.382Z,100506.66
2018-03-16T22:40:46.685Z,100511.63
2018-03-16T22:43:49.983Z,100504.84
2018-03-16T22:46:53.289Z,100509.53
2018-03-16T22:49:56.512Z,100510.63
2018-03-16T22:52:59.703Z,100510.09
2018-03-16T22:56:02.971Z,100513.04
2018-03-16T22:59:06.255Z,100514.97
2018-03-16T23:02:09.596Z,100523.72
2018-03-16T23:05:12.934Z,100526.83
2018-03-16T23:08:16.138Z,100532.86
2018-03-16T23:11:19.282Z,100539.03
2018-03-16T23:14:22.520Z,100540.54
2018-03-16T23:17:26.612Z,100536.89
2018-03-16T23:20:29.802Z,100536.89
2018-03-16T23:23:33.051Z,100536.60
2018-03-16T23:26:36.372Z,100538.35
2018-03-16T23:29:39.675Z,100532.31
2018-03-16T23:32:43.032Z,100533.77
2018-03-16T23:35:46.246Z,100527.14
2018-03-16T23:38:49.434Z,100526.32
2018-03-16T23:41:52.794Z,100528.73
2018-03-16T23:44:55.931Z,100524.10
2018-03-16T23:47:59.126Z,100527.05
2018-03-16T23:51:02.262Z,100528.40
2018-03-16T23:54:05.410Z,100522.23
2018-03-16T23:57:08.628Z,100528.34
